createdAt,value
2022-10-23T00:01:40.921Z,95.24
2022-10-23T00:04:13.168Z,95.13
2022-10-23T00:06:41.872Z,95.17
2022-10-23T00:09:12.671Z,95.42
2022-10-23T00:11:41.716Z,95.28
2022-10-23T00:14:09.557Z,95.46
2022-10-23T00:16:37.260Z,95.25
2022-10-23T00:19:04.955Z,95.32
2022-10-23T00:21:32.821Z,95.51
2022-10-23T00:24:00.513Z,95.21
2022-10-23T00:26:28.218Z,95.22
2022-10-23T00:28:56.224Z,95.38
2022-10-23T00:31:25.056Z,95.13
2022-10-23T00:33:53.094Z,95.09
2022-10-23T00:36:22.103Z,94.85
2022-10-23T00:38:51.280Z,95.06
2022-10-23T00:41:25.058Z,95.51
2022-10-23T00:44:27.039Z,95.03
2022-10-23T00:46:55.006Z,95.44
2022-10-23T00:49:23.094Z,95.26
2022-10-23T00:51:54.060Z,95.59
2022-10-23T00:54:25.729Z,95.67
2022-10-23T00:56:58.753Z,95.80
2022-10-23T00:59:27.259Z,95.58
2022-10-23T01:01:54.999Z,95.40
2022-10-23T01:04:24.065Z,95.92
2022-10-23T01:07:10.111Z,95.46
2022-10-23T01:09:52.741Z,95.92
2022-10-23T01:12:44.412Z,95.84
2022-10-23T01:15:18.267Z,96.09
2022-10-23T01:18:26.095Z,96.07
2022-10-23T01:21:02.528Z,96.40
2022-10-23T01:23:43.580Z,96.20
2022-10-23T01:26:50.141Z,96.46
2022-10-23T01:29:24.755Z,96.64
2022-10-23T01:32:08.017Z,96.81
2022-10-23T01:35:01.155Z,96.65
2022-10-23T01:37:44.893Z,96.87
2022-10-23T01:40:26.129Z,96.78
2022-10-23T01:42:57.773Z,97.18
2022-10-23T01:45:36.240Z,97.02
2022-10-23T01:48:06.969Z,96.83
2022-10-23T01:50:38.486Z,96.83
2022-10-23T01:53:06.662Z,96.74
2022-10-23T01:55:36.601Z,97.05
2022-10-23T01:58:08.603Z,96.76
2022-10-23T02:00:42.136Z,97.25
2022-10-23T02:03:12.591Z,96.79
2022-10-23T02:05:40.209Z,97.15
2022-10-23T02:08:07.939Z,97.18
2022-10-23T02:10:42.656Z,97.18
2022-10-23T02:13:23.901Z,97.14
2022-10-23T02:16:06.157Z,96.88
2022-10-23T02:18:33.626Z,97.24
2022-10-23T02:21:07.918Z,97.19
2022-10-23T02:23:44.874Z,97.05
2022-10-23T02:26:44.346Z,97.18
2022-10-23T02:29:30.385Z,97.43
2022-10-23T02:32:00.766Z,97.24
2022-10-23T02:34:28.552Z,97.22
2022-10-23T02:36:56.635Z,97.17
2022-10-23T02:39:27.579Z,97.35
2022-10-23T02:42:08.553Z,97.43
2022-10-23T02:44:52.472Z,97.70
2022-10-23T02:47:23.415Z,97.16
2022-10-23T02:50:24.513Z,97.59
2022-10-23T02:53:30.946Z,97.49
2022-10-23T02:56:11.450Z,97.21
2022-10-23T02:58:38.930Z,97.55
2022-10-23T03:01:12.358Z,97.96
2022-10-23T03:03:45.571Z,97.94
2022-10-23T03:06:13.609Z,97.51
2022-10-23T03:08:43.401Z,97.74
2022-10-23T03:11:11.227Z,97.51
2022-10-23T03:13:38.739Z,98.25
2022-10-23T03:16:06.376Z,97.96
2022-10-23T03:18:35.647Z,97.87
2022-10-23T03:21:04.040Z,98.04
2022-10-23T03:23:34.663Z,97.85
2022-10-23T03:26:03.083Z,98.08
2022-10-23T03:28:36.861Z,97.75
2022-10-23T03:31:04.541Z,97.91
2022-10-23T03:33:32.593Z,98.15
2022-10-23T03:36:08.491Z,97.70
2022-10-23T03:38:36.176Z,97.72
2022-10-23T03:41:05.069Z,98.08
2022-10-23T03:43:32.885Z,98.14
2022-10-23T03:46:01.243Z,98.18
2022-10-23T03:48:28.827Z,97.79
2022-10-23T03:50:59.465Z,97.96
2022-10-23T03:53:27.105Z,98.11
2022-10-23T03:55:54.596Z,97.63
2022-10-23T03:58:22.189Z,97.58
2022-10-23T04:00:49.686Z,97.96
2022-10-23T04:03:17.250Z,97.71
2022-10-23T04:05:44.777Z,97.59
2022-10-23T04:08:16.332Z,97.91
2022-10-23T04:10:48.931Z,97.72
2022-10-23T04:13:19.221Z,97.57
2022-10-23T04:15:50.834Z,97.60
2022-10-23T04:18:19.071Z,97.76
2022-10-23T04:20:49.221Z,97.32
2022-10-23T04:23:17.428Z,97.68
2022-10-23T04:28:15.528Z,97.22
2022-10-23T04:30:43.066Z,97.56
2022-10-23T04:33:13.187Z,97.61
2022-10-23T04:35:40.802Z,97.30
2022-10-23T04:38:08.320Z,97.57
2022-10-23T04:40:36.142Z,97.09
2022-10-23T04:43:04.292Z,97.42
2022-10-23T04:45:36.443Z,97.54
2022-10-23T04:48:04.205Z,97.34
2022-10-23T04:50:58.566Z,97.70
2022-10-23T04:53:30.523Z,97.99
2022-10-23T04:56:24.746Z,97.87
2022-10-23T04:59:01.553Z,97.48
2022-10-23T05:01:30.165Z,97.81
2022-10-23T05:03:58.516Z,98.00
2022-10-23T05:06:26.081Z,97.94
2022-10-23T05:09:17.448Z,97.58
2022-10-23T05:12:07.332Z,97.82
2022-10-23T05:14:36.081Z,97.97
2022-10-23T05:17:09.506Z,97.52
2022-10-23T05:19:42.958Z,98.01
2022-10-23T05:22:12.372Z,98.12
2022-10-23T05:24:54.093Z,97.77
2022-10-23T05:27:25.159Z,97.87
2022-10-23T05:29:55.007Z,98.21
2022-10-23T05:32:29.555Z,98.20
2022-10-23T05:34:59.583Z,97.79
2022-10-23T05:37:29.850Z,98.38
2022-10-23T05:40:08.215Z,98.06
2022-10-23T05:42:40.822Z,98.00
2022-10-23T05:45:10.996Z,98.14
2022-10-23T05:48:05.779Z,98.06
2022-10-23T05:51:04.848Z,98.07
2022-10-23T05:53:42.603Z,97.85
2022-10-23T05:56:24.711Z,97.70
2022-10-23T05:59:11.730Z,97.50
2022-10-23T06:02:02.117Z,97.51
2022-10-23T06:04:44.395Z,97.84
2022-10-23T06:07:30.228Z,97.45
2022-10-23T06:10:01.662Z,97.82
2022-10-23T06:12:31.644Z,97.75
2022-10-23T06:14:59.720Z,97.54
2022-10-23T06:17:43.108Z,97.58
2022-10-23T06:20:11.427Z,97.79
2022-10-23T06:22:41.047Z,97.43
2022-10-23T06:25:32.461Z,97.70
2022-10-23T06:28:00.054Z,97.36
2022-10-23T06:30:28.564Z,97.30
2022-10-23T06:32:56.331Z,97.04
2022-10-23T06:35:23.981Z,96.95
2022-10-23T06:37:51.506Z,96.91
2022-10-23T06:40:30.369Z,96.90
2022-10-23T06:43:05.139Z,96.63
2022-10-23T06:45:36.631Z,97.06
2022-10-23T06:48:24.092Z,96.97
2022-10-23T06:50:55.831Z,96.88
2022-10-23T06:53:35.864Z,96.83
2022-10-23T06:56:12.679Z,96.83
2022-10-23T06:58:40.719Z,96.99
2022-10-23T07:01:14.632Z,97.01
2022-10-23T07:03:43.651Z,97.06
2022-10-23T07:06:12.149Z,97.50
2022-10-23T07:08:39.851Z,97.29
2022-10-23T07:11:27.616Z,97.21
2022-10-23T07:13:57.256Z,97.28
2022-10-23T07:16:25.162Z,97.46
2022-10-23T07:18:59.572Z,97.03
2022-10-23T07:21:32.864Z,97.09
2022-10-23T07:24:19.957Z,97.15
2022-10-23T07:26:48.121Z,97.04
2022-10-23T07:29:15.998Z,96.85
2022-10-23T07:31:44.287Z,96.97
2022-10-23T07:34:32.240Z,96.83
2022-10-23T07:37:30.251Z,96.92
2022-10-23T07:40:00.182Z,97.04
2022-10-23T07:42:27.829Z,97.14
2022-10-23T07:44:55.350Z,97.18
2022-10-23T07:47:23.584Z,97.40
2022-10-23T07:49:52.588Z,97.18
2022-10-23T07:52:21.283Z,97.67
2022-10-23T07:55:09.203Z,97.66
2022-10-23T07:57:39.797Z,97.29
2022-10-23T08:00:26.628Z,97.30
2022-10-23T08:03:03.222Z,97.32
2022-10-23T08:05:33.202Z,97.34
2022-10-23T08:08:02.458Z,96.91
2022-10-23T08:10:31.122Z,96.85
2022-10-23T08:13:00.094Z,96.76
2022-10-23T08:15:56.887Z,96.69
2022-10-23T08:18:45.334Z,96.62
2022-10-23T08:21:13.192Z,96.48
2022-10-23T08:23:41.047Z,96.57
2022-10-23T08:26:09.667Z,96.77
2022-10-23T08:28:37.588Z,96.58
2022-10-23T08:31:10.066Z,96.93
2022-10-23T08:33:38.697Z,96.64
2022-10-23T08:36:24.066Z,96.49
2022-10-23T08:38:54.115Z,96.33
2022-10-23T08:41:33.372Z,96.60
2022-10-23T08:44:39.205Z,96.68
2022-10-23T08:47:18.330Z,96.98
2022-10-23T08:50:14.247Z,96.58
2022-10-23T08:52:48.701Z,96.81
2022-10-23T08:55:42.080Z,97.08
2022-10-23T08:58:31.988Z,97.02
2022-10-23T09:00:59.619Z,96.75
2022-10-23T09:03:27.795Z,96.78
2022-10-23T09:06:25.674Z,96.76
2022-10-23T09:09:14.566Z,96.78
2022-10-23T09:11:54.542Z,96.91
2022-10-23T09:14:37.418Z,96.88
2022-10-23T09:17:15.647Z,96.54
2022-10-23T09:19:45.362Z,97.31
2022-10-23T09:22:13.679Z,97.22
2022-10-23T09:24:43.605Z,96.55
2022-10-23T09:27:17.722Z,96.43
2022-10-23T09:29:54.486Z,96.24
2022-10-23T09:32:37.502Z,96.41
2022-10-23T09:35:06.105Z,96.40
2022-10-23T09:37:36.010Z,96.52
2022-10-23T09:40:09.672Z,96.59
2022-10-23T09:42:37.323Z,96.41
2022-10-23T09:45:22.275Z,96.18
2022-10-23T09:47:49.912Z,96.57
2022-10-23T09:50:21.038Z,96.49
2022-10-23T09:52:54.039Z,96.41
2022-10-23T09:55:25.002Z,96.01
2022-10-23T09:57:54.181Z,96.56
2022-10-23T10:00:27.120Z,95.75
2022-10-23T10:03:03.260Z,95.83
2022-10-23T10:05:38.806Z,95.69
2022-10-23T10:08:49.066Z,95.51
2022-10-23T10:11:24.947Z,95.58
2022-10-23T10:14:16.969Z,95.50
2022-10-23T10:16:53.616Z,95.63
2022-10-23T10:20:03.681Z,95.77
2022-10-23T10:22:52.465Z,95.48
2022-10-23T10:25:24.189Z,95.84
2022-10-23T10:28:27.295Z,95.76
2022-10-23T10:31:14.474Z,95.77
2022-10-23T10:34:26.794Z,95.78
2022-10-23T10:37:13.689Z,95.57
2022-10-23T10:40:16.397Z,95.41
2022-10-23T10:43:08.792Z,95.66
2022-10-23T10:45:41.971Z,95.40
2022-10-23T10:48:28.363Z,95.67
2022-10-23T10:51:21.358Z,95.53
2022-10-23T10:54:07.830Z,95.27
2022-10-23T10:56:41.900Z,95.17
2022-10-23T10:59:23.401Z,95.23
2022-10-23T11:01:56.904Z,95.36
2022-10-23T11:04:51.400Z,95.70
2022-10-23T11:07:26.868Z,95.53
2022-10-23T11:09:57.204Z,95.86
2022-10-23T11:12:27.652Z,95.52
2022-10-23T11:14:56.681Z,95.54
2022-10-23T11:17:38.941Z,95.84
2022-10-23T11:20:36.108Z,95.63
2022-10-23T11:23:16.719Z,95.50
2022-10-23T11:25:59.356Z,95.87
2022-10-23T11:28:51.744Z,95.67
2022-10-23T11:31:46.050Z,95.61
2022-10-23T11:34:35.414Z,95.76
2022-10-23T11:37:04.807Z,96.26
2022-10-23T11:39:39.376Z,96.23
2022-10-23T11:42:34.220Z,96.31
2022-10-23T11:45:01.981Z,96.41
2022-10-23T11:47:40.315Z,96.35
2022-10-23T11:50:08.195Z,95.80
2022-10-23T11:52:50.309Z,96.39
2022-10-23T11:55:27.186Z,96.23
2022-10-23T11:58:09.185Z,96.40
2022-10-23T12:00:49.621Z,96.33
2022-10-23T12:03:22.729Z,96.61
2022-10-23T12:05:58.991Z,96.96
2022-10-23T12:08:30.732Z,96.37
2022-10-23T12:10:58.404Z,96.36
2022-10-23T12:23:56.344Z,97.08
2022-10-23T12:34:05.602Z,96.82
2022-10-23T12:36:37.263Z,96.85
2022-10-23T12:52:02.200Z,97.31
2022-10-23T12:54:39.171Z,97.71
2022-10-23T12:57:42.247Z,97.15
2022-10-23T13:00:16.261Z,97.29
2022-10-23T13:02:44.260Z,97.46
2022-10-23T13:05:17.546Z,97.39
2022-10-23T13:07:48.946Z,97.35
2022-10-23T13:10:24.092Z,97.48
2022-10-23T13:13:04.149Z,97.60
2022-10-23T13:15:43.206Z,97.28
2022-10-23T13:18:15.697Z,97.59
2022-10-23T13:20:57.628Z,97.55
2022-10-23T13:23:34.935Z,97.68
2022-10-23T13:26:27.827Z,97.52
2022-10-23T13:28:56.736Z,97.48
2022-10-23T13:31:28.479Z,97.71
2022-10-23T13:33:59.252Z,97.40
2022-10-23T13:36:29.452Z,97.55
2022-10-23T13:40:12.483Z,97.34
2022-10-23T13:42:41.876Z,97.43
2022-10-23T13:45:21.374Z,97.12
2022-10-23T13:47:49.389Z,97.59
2022-10-23T13:50:17.931Z,97.39
2022-10-23T13:52:45.887Z,97.33
2022-10-23T13:55:24.666Z,97.42
2022-10-23T13:57:52.538Z,97.30
2022-10-23T14:00:20.314Z,97.60
2022-10-23T14:02:48.857Z,97.41
2022-10-23T14:05:17.275Z,97.24
2022-10-23T14:07:45.382Z,97.28
2022-10-23T14:10:13.391Z,97.47
2022-10-23T14:12:42.131Z,97.44
2022-10-23T14:15:11.845Z,97.73
2022-10-23T14:17:39.751Z,97.24
2022-10-23T14:20:08.317Z,97.34
2022-10-23T14:22:36.477Z,97.37
2022-10-23T14:25:05.369Z,97.29
2022-10-23T14:27:44.607Z,97.28
2022-10-23T14:30:14.897Z,97.61
2022-10-23T14:32:51.569Z,97.14
2022-10-23T14:35:23.052Z,97.15
2022-10-23T14:37:53.613Z,97.35
2022-10-23T14:40:21.836Z,97.48
2022-10-23T14:42:49.845Z,97.32
2022-10-23T14:45:17.987Z,97.45
2022-10-23T14:47:47.384Z,97.39
2022-10-23T14:50:16.444Z,97.81
2022-10-23T14:52:45.283Z,97.47
2022-10-23T14:55:13.702Z,97.08
2022-10-23T14:57:41.688Z,97.36
2022-10-23T15:00:13.655Z,97.37
2022-10-23T15:02:41.793Z,97.29
2022-10-23T15:08:16.945Z,97.45
2022-10-23T15:10:44.676Z,97.53
2022-10-23T15:13:12.630Z,97.51
2022-10-23T15:15:40.430Z,97.40
2022-10-23T15:18:08.269Z,97.35
2022-10-23T15:20:36.148Z,97.74
2022-10-23T15:23:04.002Z,97.56
2022-10-23T15:25:31.836Z,97.46
2022-10-23T15:27:59.679Z,97.90
2022-10-23T15:30:31.283Z,97.64
2022-10-23T15:33:06.377Z,97.64
2022-10-23T15:35:34.486Z,97.79
2022-10-23T15:38:02.315Z,97.68
2022-10-23T15:40:30.193Z,97.43
2022-10-23T15:42:57.772Z,97.93
2022-10-23T15:45:30.572Z,97.78
2022-10-23T15:52:40.658Z,97.83
2022-10-23T15:55:11.726Z,97.67
2022-10-23T15:57:39.723Z,98.03
2022-10-23T16:00:10.495Z,97.95
2022-10-23T16:02:38.175Z,97.91
2022-10-23T16:05:06.010Z,97.61
2022-10-23T16:07:33.626Z,97.68
2022-10-23T16:10:01.242Z,97.95
2022-10-23T16:12:29.132Z,97.59
2022-10-23T16:14:56.771Z,98.08
2022-10-23T16:17:24.363Z,98.12
2022-10-23T16:19:52.045Z,97.91
2022-10-23T16:22:19.594Z,97.99
2022-10-23T16:24:47.082Z,98.21
2022-10-23T16:27:14.728Z,98.27
2022-10-23T16:29:42.379Z,97.96
2022-10-23T16:32:09.936Z,98.04
2022-10-23T16:34:37.723Z,98.32
2022-10-23T16:37:05.253Z,98.42
2022-10-23T16:39:47.140Z,97.90
2022-10-23T16:42:33.525Z,98.45
2022-10-23T16:45:10.177Z,98.34
2022-10-23T16:47:37.731Z,98.29
2022-10-23T16:50:05.587Z,98.41
2022-10-23T16:52:34.616Z,98.61
2022-10-23T16:55:02.112Z,98.57
2022-10-23T16:57:29.794Z,98.63
2022-10-23T16:59:57.463Z,98.47
2022-10-23T17:02:25.093Z,98.72
2022-10-23T17:04:52.682Z,98.79
2022-10-23T17:09:52.807Z,98.44
2022-10-23T17:12:20.421Z,98.79
2022-10-23T17:14:47.957Z,98.39
2022-10-23T17:17:15.617Z,98.30
2022-10-23T17:19:45.477Z,98.91
2022-10-23T17:22:14.146Z,98.87
2022-10-23T17:24:44.160Z,98.53
2022-10-23T17:27:13.919Z,99.01
2022-10-23T17:29:41.481Z,98.62
2022-10-23T17:32:09.152Z,98.60
2022-10-23T17:34:36.993Z,98.88
2022-10-23T17:37:04.745Z,99.23
2022-10-23T17:39:32.592Z,99.30
2022-10-23T17:42:00.133Z,99.25
2022-10-23T17:44:29.204Z,98.77
2022-10-23T17:46:57.119Z,98.69
2022-10-23T17:49:25.499Z,99.06
2022-10-23T17:51:55.119Z,99.30
2022-10-23T17:54:24.543Z,99.23
2022-10-23T17:56:52.084Z,98.91
2022-10-23T17:59:19.858Z,99.23
2022-10-23T18:01:48.782Z,98.90
2022-10-23T18:04:20.373Z,99.24
2022-10-23T18:06:52.587Z,99.17
2022-10-23T18:09:22.202Z,99.21
2022-10-23T18:11:50.177Z,99.27
2022-10-23T18:14:20.070Z,98.69
2022-10-23T18:16:48.666Z,99.19
2022-10-23T18:19:18.400Z,98.97
2022-10-23T18:21:47.628Z,98.99
2022-10-23T18:24:15.759Z,98.94
2022-10-23T18:26:43.793Z,98.99
2022-10-23T18:29:17.409Z,99.16
2022-10-23T18:31:45.899Z,99.07
2022-10-23T18:34:20.266Z,99.20
2022-10-23T18:36:49.185Z,98.95
2022-10-23T18:39:22.257Z,99.00
2022-10-23T18:41:52.927Z,98.92
2022-10-23T18:44:22.456Z,99.04
2022-10-23T18:46:50.737Z,99.13
2022-10-23T18:49:20.044Z,99.22
2022-10-23T18:51:49.868Z,99.28
2022-10-23T18:54:19.758Z,99.15
2022-10-23T18:56:48.499Z,99.30
2022-10-23T18:59:19.024Z,99.49
2022-10-23T19:01:47.140Z,99.58
2022-10-23T19:04:16.025Z,99.12
2022-10-23T19:06:45.238Z,99.50
2022-10-23T19:09:14.293Z,99.09
2022-10-23T19:11:43.031Z,99.31
2022-10-23T19:14:11.394Z,99.24
2022-10-23T19:16:49.858Z,99.48
2022-10-23T19:19:21.882Z,99.45
2022-10-23T19:21:50.506Z,99.33
2022-10-23T19:24:24.317Z,99.30
2022-10-23T19:26:52.203Z,99.45
2022-10-23T19:29:23.152Z,99.54
2022-10-23T19:31:50.934Z,99.78
2022-10-23T19:34:20.451Z,99.43
2022-10-23T19:36:49.233Z,99.46
2022-10-23T19:39:17.796Z,99.47
2022-10-23T19:41:45.840Z,99.67
2022-10-23T19:44:15.131Z,99.25
2022-10-23T19:46:43.124Z,99.45
2022-10-23T19:49:11.266Z,99.11
2022-10-23T19:51:39.225Z,99.46
2022-10-23T19:54:06.846Z,99.37
2022-10-23T19:56:35.814Z,99.34
2022-10-23T19:59:04.375Z,99.71
2022-10-23T20:01:32.008Z,99.20
2022-10-23T20:03:59.782Z,99.35
2022-10-23T20:06:30.656Z,99.38
2022-10-23T20:08:58.217Z,99.25
2022-10-23T20:11:28.377Z,99.20
2022-10-23T20:13:56.969Z,99.53
2022-10-23T20:16:28.084Z,99.77
2022-10-23T20:18:56.809Z,99.84
2022-10-23T20:21:25.336Z,99.48
2022-10-23T20:23:53.115Z,99.38
2022-10-23T20:26:23.689Z,99.23
2022-10-23T20:28:56.017Z,99.69
2022-10-23T20:31:25.789Z,99.24
2022-10-23T20:33:54.288Z,99.33
2022-10-23T20:36:28.667Z,99.23
2022-10-23T20:38:57.810Z,99.29
2022-10-23T20:41:27.163Z,99.33
2022-10-23T20:43:56.264Z,99.56
2022-10-23T20:46:24.135Z,99.66
2022-10-23T20:48:52.165Z,99.52
2022-10-23T20:51:23.074Z,99.08
2022-10-23T20:53:51.514Z,99.20
2022-10-23T20:56:20.651Z,99.53
2022-10-23T20:58:48.221Z,99.25
2022-10-23T21:01:17.520Z,99.29
2022-10-23T21:03:50.271Z,99.25
2022-10-23T21:06:19.462Z,99.70
2022-10-23T21:08:47.093Z,99.67
2022-10-23T21:11:17.720Z,99.82
2022-10-23T21:13:45.256Z,99.56
2022-10-23T21:16:13.177Z,99.82
2022-10-23T21:18:46.072Z,99.68
2022-10-23T21:21:19.163Z,99.92
2022-10-23T21:23:52.212Z,99.33
2022-10-23T21:26:22.302Z,99.38
2022-10-23T21:28:56.245Z,99.58
2022-10-23T21:31:34.527Z,99.36
2022-10-23T21:34:02.133Z,99.49
2022-10-23T21:36:31.107Z,99.62
2022-10-23T21:39:02.762Z,99.75
2022-10-23T21:41:34.353Z,99.95
2022-10-23T21:44:05.286Z,99.49
2022-10-23T21:46:34.416Z,99.37
2022-10-23T21:49:02.425Z,99.66
2022-10-23T21:51:34.557Z,99.52
2022-10-23T21:54:02.340Z,99.93
2022-10-23T21:56:38.314Z,100.00
2022-10-23T21:59:09.754Z,99.74
2022-10-23T22:01:37.339Z,99.96
2022-10-23T22:04:04.983Z,99.88
2022-10-23T22:06:32.663Z,99.98
2022-10-23T22:09:00.750Z,99.79
2022-10-23T22:11:28.626Z,99.29
2022-10-23T22:13:56.797Z,99.70
2022-10-23T22:16:24.417Z,99.53
2022-10-23T22:18:52.036Z,99.58
2022-10-23T22:21:26.215Z,99.36
2022-10-23T22:23:56.092Z,99.39
2022-10-23T22:26:31.030Z,99.63
2022-10-23T22:29:01.265Z,99.79
2022-10-23T22:31:31.696Z,99.52
2022-10-23T22:34:08.591Z,99.45
2022-10-23T22:36:46.485Z,99.58
2022-10-23T22:39:14.040Z,99.23
2022-10-23T22:41:43.289Z,99.18
2022-10-23T22:44:12.303Z,99.48
2022-10-23T22:46:39.793Z,99.48
2022-10-23T22:49:07.700Z,99.62
2022-10-23T22:51:35.196Z,99.64
2022-10-23T22:54:03.211Z,99.71
2022-10-23T22:56:30.951Z,99.75
2022-10-23T22:58:58.670Z,99.46
2022-10-23T23:01:31.068Z,99.60
2022-10-23T23:04:08.720Z,99.73
2022-10-23T23:06:47.486Z,99.59
2022-10-23T23:09:17.882Z,99.79
2022-10-23T23:11:51.927Z,99.90
2022-10-23T23:14:24.349Z,99.18
2022-10-23T23:16:53.544Z,99.29
2022-10-23T23:19:22.985Z,99.77
2022-10-23T23:21:50.633Z,99.73
2022-10-23T23:24:18.415Z,99.78
2022-10-23T23:26:45.892Z,100.00
2022-10-23T23:29:13.432Z,99.47
2022-10-23T23:31:40.984Z,99.91
2022-10-23T23:34:08.582Z,99.77
2022-10-23T23:36:36.266Z,99.88
2022-10-23T23:41:37.816Z,99.97
2022-10-23T23:44:05.590Z,99.41
2022-10-23T23:46:33.087Z,99.55
2022-10-23T23:49:00.554Z,99.81
2022-10-23T23:51:28.144Z,99.56
2022-10-23T23:53:55.630Z,99.63
2022-10-23T23:56:23.311Z,99.77
2022-10-23T23:58:51.140Z,99.85
